Terminal Aerodrome Forecast
Issued by NWS Tuscon, AZ

Home | Current Version | Previous Version | Text Only | Print | Product List | Glossary On
Versions: 1 2 3 4 5 6 7 8 9 10 11 12
000
FTUS45 KTWC 270500
TAFDUG
TAF
KDUG 270520Z 2706/2806 07006KT P6SM VCSH SCT040 OVC060
     FM270800 VRB04KT P6SM SCT035 BKN050
     FM272000 23005KT P6SM SCT035 SCT050
     FM280300 03005KT P6SM FEW050=

USA.gov is the U.S. government's official web portal to all federal, state and local government web resources and services.